Hooksett, NH

3:03 PM EDT on July 28, 2015 (GMT -0400)
Bullard Drive | | Change Station
CLOSE
Current Station
Personal Weather Station
Location: Hooksett, NH
Elevation: 292 ft
Nearby Weather Stations

Elev 292 ft 43.10 °N, 71.46 °W | Updated 2 seconds ago

Partly Cloudy
Partly Cloudy
89.4 °F
Feels Like 89 °F
N
0.0
Wind Variable Wind from ESE
Gusts 0.0 mph

Today
High -- | Low -- °F
--% Chance of Precip.
Yesterday
High -- | Low -- °F
Precip. -- in
5:32 AM 8:11 PM
Waxing Gibbous, 91% visible
Pressure 29.94 in
Visibility 10.0 miles
Clouds Scattered Clouds 5000 ft
Mostly Cloudy 25000 ft
Heat Index 89 °F
Dew Point 60 °F
Humidity 38%
Rainfall 0.00 in
Snow Depth Not available.
UV 5 out of 12
Pollen 5.20 out of 12
Air Quality Not available.
Flu Activity Not available.
METAR KMHT 281853Z VRB03KT 10SM SCT050 BKN250 31/17 A2991 RMK AO2 SLP137 T03110167

More Conditions Fewer Conditions

Pressure 29.94 in
Visibility 10.0 miles
Clouds Scattered Clouds 5000 ft
Mostly Cloudy 25000 ft
Heat Index 89 °F
Dew Point 60 °F
Humidity 38%
Rainfall 0.00 in
Snow Depth Not available.
UV 5 out of 12
Pollen 5.20 out of 12
Air Quality Not available.
Flu Activity Not available.
METAR KMHT 281853Z VRB03KT 10SM SCT050 BKN250 31/17 A2991 RMK AO2 SLP137 T03110167

More Conditions Fewer Conditions

10-Day Weather Forecast

×

Almanac

Astronomy

Jul. 28, 2015 Rise Set
Actual Time
Civil Twilight
Nautical Twilight
Astronomical Twilight
Moon
Length of Visible Light
Length of Day
Tomorrow will be .
, % of the Moon is Illuminated

Today's Extremes

State Highs State Lows

Community

WunderPhotos

Upload Photos

1,841,913 photos uploaded!

WunderBlogs® & News

Nearby

Air Quality

  Air Quality AQ Index Pollutant
Not available.

Snow Depth

Station Depth Elevation

Earthquake Activity

City Distance Mag. Time & Date
Minimum magnitude displayed is 2.5.

Coastal Water Temperatures

Place Temperature

Stations

Nearby Weather Stations

Station Location Temp. Windchill Dew Point Humidity Wind Precip. Elev Updated Type